Time;durP1;ratioP1;P1;durP2;ratioP2;P2;SDS_P1;SDS_P2;PMS_P1;PMS_P2;Temp;Humidity;BMP_temperature;BMP_pressure;BME280_temperature;BME280_humidity;BME280_pressure;Samples;Min_cycle;Max_cycle;Signal;HPM_P1;HPM_P2
2023/09/24 00:01:08;;;;;;;2.42;2.22;;;;;;;;;;5100862;28;20203;-62
2023/09/24 00:03:37;;;;;;;2.25;2.00;;;;;;;;;;5100614;28;20214;-62
2023/09/24 00:06:08;;;;;;;2.42;2.20;;;;;;;;;;5100329;28;20647;-62
2023/09/24 00:08:36;;;;;;;2.22;2.10;;;;;;;;;;5100492;28;20596;-62
2023/09/24 00:11:05;;;;;;;2.33;2.20;;;;;;;;;;5100296;28;20204;-62
2023/09/24 00:13:34;;;;;;;2.40;2.20;;;;;;;;;;5100759;28;20479;-62
2023/09/24 00:16:04;;;;;;;2.50;2.30;;;;;;;;;;5100586;28;20651;-62
2023/09/24 00:18:32;;;;;;;3.05;2.53;;;;;;;;;;5100563;28;20207;-62
2023/09/24 00:21:00;;;;;;;2.08;1.92;;;;;;;;;;5101007;28;20483;-62
2023/09/24 00:23:29;;;;;;;2.47;2.10;;;;;;;;;;5100650;28;20308;-62
2023/09/24 00:25:57;;;;;;;2.50;2.30;;;;;;;;;;5087065;28;20670;-61
2023/09/24 00:28:26;;;;;;;2.20;2.10;;;;;;;;;;5078190;28;20212;-62
2023/09/24 00:30:55;;;;;;;2.22;2.03;;;;;;;;;;5080036;28;20196;-62
2023/09/24 00:33:23;;;;;;;2.30;2.10;;;;;;;;;;5080478;28;20200;-61
2023/09/24 00:35:51;;;;;;;2.47;2.28;;;;;;;;;;5079615;28;20550;-62
2023/09/24 00:38:19;;;;;;;1.90;1.80;;;;;;;;;;5079721;28;20204;-62
2023/09/24 00:40:47;;;;;;;2.05;1.95;;;;;;;;;;5079276;28;20594;-62
2023/09/24 00:43:30;;;;;;;2.38;2.17;;;;;;;;;;5079538;28;20224;-62
2023/09/24 00:45:58;;;;;;;2.05;1.95;;;;;;;;;;5079828;28;20259;-62
2023/09/24 00:48:28;;;;;;;2.58;1.90;;;;;;;;;;5079483;28;20230;-62
2023/09/24 00:50:58;;;;;;;2.00;1.90;;;;;;;;;;5080085;28;20208;-62
2023/09/24 00:53:26;;;;;;;2.00;1.90;;;;;;;;;;5080045;28;20201;-62
2023/09/24 00:55:54;;;;;;;1.85;1.75;;;;;;;;;;5079360;28;20582;-62
2023/09/24 00:58:25;;;;;;;1.98;1.88;;;;;;;;;;5079805;28;20255;-62
2023/09/24 01:00:55;;;;;;;2.08;1.98;;;;;;;;;;5079639;28;20200;-62
2023/09/24 01:03:24;;;;;;;2.00;1.80;;;;;;;;;;5079685;28;20232;-61
2023/09/24 01:05:52;;;;;;;2.30;2.10;;;;;;;;;;5093337;28;20239;-62
2023/09/24 01:08:21;;;;;;;1.60;1.50;;;;;;;;;;5099684;28;20211;-62
2023/09/24 01:10:49;;;;;;;2.00;1.80;;;;;;;;;;5099119;28;20290;-62
2023/09/24 01:13:19;;;;;;;2.60;2.20;;;;;;;;;;5099596;28;20302;-62
2023/09/24 01:15:48;;;;;;;2.00;1.90;;;;;;;;;;5099718;28;20471;-62
2023/09/24 01:18:17;;;;;;;1.98;1.77;;;;;;;;;;5099118;28;20212;-62
2023/09/24 01:20:45;;;;;;;1.77;1.67;;;;;;;;;;5098873;28;20269;-62
2023/09/24 01:23:15;;;;;;;1.80;1.70;;;;;;;;;;5099071;28;20482;-61
2023/09/24 01:25:44;;;;;;;1.73;1.63;;;;;;;;;;5099295;28;20247;-62
2023/09/24 01:28:12;;;;;;;1.80;1.70;;;;;;;;;;5099626;28;20267;-62
2023/09/24 01:30:40;;;;;;;1.70;1.60;;;;;;;;;;5099273;28;20204;-62
2023/09/24 01:33:08;;;;;;;2.00;1.80;;;;;;;;;;5099709;28;20199;-62
2023/09/24 01:35:38;;;;;;;1.83;1.73;;;;;;;;;;5099284;28;20203;-61
2023/09/24 01:38:06;;;;;;;1.88;1.77;;;;;;;;;;5099388;28;20204;-62
2023/09/24 01:40:37;;;;;;;1.50;1.40;;;;;;;;;;5099012;28;20577;-61
2023/09/24 01:43:06;;;;;;;2.10;1.50;;;;;;;;;;5099248;28;20272;-61
2023/09/24 01:45:35;;;;;;;1.75;1.40;;;;;;;;;;5098862;28;20218;-62
2023/09/24 01:48:03;;;;;;;1.83;1.63;;;;;;;;;;5098663;28;20215;-62
2023/09/24 01:50:32;;;;;;;1.85;1.63;;;;;;;;;;5098487;28;20600;-61
2023/09/24 01:53:00;;;;;;;1.75;1.65;;;;;;;;;;5098729;28;20218;-62
2023/09/24 01:55:29;;;;;;;1.77;1.67;;;;;;;;;;5098676;28;20607;-61
2023/09/24 01:57:58;;;;;;;1.73;1.63;;;;;;;;;;5099163;28;20211;-61
2023/09/24 02:00:27;;;;;;;1.85;1.63;;;;;;;;;;5099045;28;20203;-61
2023/09/24 02:02:56;;;;;;;1.77;1.60;;;;;;;;;;5098914;28;20292;-62
2023/09/24 02:05:24;;;;;;;1.77;1.67;;;;;;;;;;5098348;28;20235;-62
2023/09/24 02:07:51;;;;;;;1.50;1.40;;;;;;;;;;5098819;28;20266;-62
2023/09/24 02:10:21;;;;;;;1.50;1.40;;;;;;;;;;5098717;28;20210;-62
2023/09/24 02:12:49;;;;;;;1.55;1.45;;;;;;;;;;5098508;28;20207;-62
2023/09/24 02:15:19;;;;;;;2.28;1.30;;;;;;;;;;5098525;28;20294;-61
2023/09/24 02:17:48;;;;;;;1.60;1.50;;;;;;;;;;5098217;28;20203;-62
2023/09/24 02:20:25;;;;;;;1.50;1.40;;;;;;;;;;5097449;28;20218;-62
2023/09/24 02:22:56;;;;;;;1.85;1.75;;;;;;;;;;5098584;28;20242;-61
2023/09/24 02:25:24;;;;;;;2.80;1.60;;;;;;;;;;5098023;28;20203;-61
2023/09/24 02:27:52;;;;;;;1.60;1.50;;;;;;;;;;5098700;28;20247;-61
2023/09/24 02:30:22;;;;;;;1.85;1.45;;;;;;;;;;5098080;28;20265;-61
2023/09/24 02:32:50;;;;;;;1.65;1.55;;;;;;;;;;5098560;28;20207;-61
2023/09/24 02:35:18;;;;;;;1.60;1.50;;;;;;;;;;5098463;28;20215;-61
2023/09/24 02:37:47;;;;;;;1.70;1.60;;;;;;;;;;5097972;28;20215;-61
2023/09/24 02:40:21;;;;;;;1.60;1.50;;;;;;;;;;5098238;28;20203;-61
2023/09/24 02:42:50;;;;;;;1.65;1.55;;;;;;;;;;5098309;28;20223;-61
2023/09/24 02:45:18;;;;;;;1.50;1.40;;;;;;;;;;5097862;28;20604;-61
2023/09/24 02:47:49;;;;;;;1.80;1.40;;;;;;;;;;5098354;28;20203;-62
2023/09/24 02:50:18;;;;;;;1.80;1.70;;;;;;;;;;5097959;28;20207;-61
2023/09/24 02:52:47;;;;;;;1.63;1.52;;;;;;;;;;5098008;28;20199;-61
2023/09/24 02:55:15;;;;;;;1.90;1.67;;;;;;;;;;5098053;28;20204;-61
2023/09/24 02:57:44;;;;;;;1.80;1.70;;;;;;;;;;5098114;28;20222;-61
2023/09/24 03:00:17;;;;;;;1.50;1.40;;;;;;;;;;5098202;28;20535;-61
2023/09/24 03:02:45;;;;;;;1.40;1.30;;;;;;;;;;5097549;28;20726;-61
2023/09/24 03:05:20;;;;;;;1.73;1.30;;;;;;;;;;5097895;28;20247;-61
2023/09/24 03:07:50;;;;;;;1.60;1.50;;;;;;;;;;5098084;28;20268;-61
2023/09/24 03:10:18;;;;;;;1.70;1.60;;;;;;;;;;5097814;28;20218;-61
2023/09/24 03:12:46;;;;;;;1.55;1.45;;;;;;;;;;5097624;28;20242;-61
2023/09/24 03:15:14;;;;;;;2.10;2.00;;;;;;;;;;5098146;28;20233;-61
2023/09/24 03:17:42;;;;;;;1.70;1.60;;;;;;;;;;5098099;28;20219;-61
2023/09/24 03:20:15;;;;;;;1.80;1.70;;;;;;;;;;5097780;28;20203;-61
2023/09/24 03:22:46;;;;;;;1.92;1.50;;;;;;;;;;5097729;28;20290;-61
2023/09/24 03:25:17;;;;;;;1.80;1.70;;;;;;;;;;5097892;28;20211;-61
2023/09/24 03:27:44;;;;;;;1.88;1.65;;;;;;;;;;5097616;28;20503;-61
2023/09/24 03:30:13;;;;;;;1.73;1.63;;;;;;;;;;5097926;28;20203;-61
2023/09/24 03:32:41;;;;;;;2.17;1.40;;;;;;;;;;5100267;28;20290;-61
2023/09/24 03:35:10;;;;;;;1.92;1.58;;;;;;;;;;5101818;28;20203;-61
2023/09/24 03:37:43;;;;;;;1.50;1.40;;;;;;;;;;5101573;28;20207;-61
2023/09/24 03:40:14;;;;;;;1.75;1.65;;;;;;;;;;5101463;28;20204;-61
2023/09/24 03:42:42;;;;;;;2.22;1.60;;;;;;;;;;5101623;28;20292;-61
2023/09/24 03:45:10;;;;;;;2.17;1.73;;;;;;;;;;5101200;28;20592;-61
2023/09/24 03:47:38;;;;;;;1.70;1.60;;;;;;;;;;5101647;28;20223;-61
2023/09/24 03:50:07;;;;;;;1.80;1.70;;;;;;;;;;5101067;28;20214;-61
2023/09/24 03:52:35;;;;;;;1.70;1.60;;;;;;;;;;5101211;28;20612;-61
2023/09/24 03:55:02;;;;;;;1.63;1.52;;;;;;;;;;5100784;28;20211;-61
2023/09/24 03:57:31;;;;;;;2.13;1.55;;;;;;;;;;5100970;28;20212;-61
2023/09/24 03:59:59;;;;;;;1.55;1.45;;;;;;;;;;5101331;28;20204;-62
2023/09/24 04:02:27;;;;;;;1.60;1.50;;;;;;;;;;5101460;28;20211;-61
2023/09/24 04:04:55;;;;;;;2.35;1.33;;;;;;;;;;5100863;28;20335;-61
2023/09/24 04:07:22;;;;;;;2.30;1.92;;;;;;;;;;5101090;28;20215;-62
2023/09/24 04:09:50;;;;;;;1.52;1.42;;;;;;;;;;5100926;28;20207;-61
2023/09/24 04:12:18;;;;;;;1.73;1.63;;;;;;;;;;5101028;28;20226;-61
2023/09/24 04:14:47;;;;;;;1.90;1.70;;;;;;;;;;5100834;28;20200;-61
2023/09/24 04:17:14;;;;;;;1.70;1.60;;;;;;;;;;5100500;28;20226;-61
2023/09/24 04:19:42;;;;;;;1.58;1.42;;;;;;;;;;5100345;28;20716;-61
2023/09/24 04:22:09;;;;;;;1.65;1.55;;;;;;;;;;5100343;28;20210;-62
2023/09/24 04:24:37;;;;;;;1.73;1.50;;;;;;;;;;5100272;28;20227;-62
2023/09/24 04:27:05;;;;;;;1.60;1.50;;;;;;;;;;5100764;28;20204;-61
2023/09/24 04:29:32;;;;;;;1.67;1.58;;;;;;;;;;5100498;28;20212;-61
2023/09/24 04:32:01;;;;;;;1.90;1.60;;;;;;;;;;5100302;28;20848;-61
2023/09/24 04:34:29;;;;;;;1.60;1.50;;;;;;;;;;5100644;28;20199;-61
2023/09/24 04:36:57;;;;;;;2.17;1.60;;;;;;;;;;5100540;28;20297;-61
2023/09/24 04:39:25;;;;;;;1.77;1.60;;;;;;;;;;5100476;28;20217;-61
2023/09/24 04:41:52;;;;;;;1.88;1.58;;;;;;;;;;5094698;28;20574;-62
2023/09/24 04:44:20;;;;;;;1.63;1.50;;;;;;;;;;5097252;28;20288;-61
2023/09/24 04:46:47;;;;;;;1.63;1.52;;;;;;;;;;5100030;28;20600;-61
2023/09/24 04:49:17;;;;;;;1.90;1.80;;;;;;;;;;5100431;28;20204;-61
2023/09/24 04:51:44;;;;;;;1.40;1.30;;;;;;;;;;5099429;28;20204;-63
2023/09/24 04:54:12;;;;;;;1.58;1.48;;;;;;;;;;5100619;28;20199;-61
2023/09/24 04:56:39;;;;;;;1.50;1.40;;;;;;;;;;5100118;28;20585;-62
2023/09/24 04:59:07;;;;;;;1.65;1.55;;;;;;;;;;5099976;28;20211;-60
2023/09/24 05:01:35;;;;;;;1.92;1.75;;;;;;;;;;5099683;28;20200;-61
2023/09/24 05:04:02;;;;;;;1.70;1.60;;;;;;;;;;5099494;28;20223;-63
2023/09/24 05:06:32;;;;;;;2.13;1.60;;;;;;;;;;5099751;28;20203;-61
2023/09/24 05:08:59;;;;;;;1.50;1.40;;;;;;;;;;5100024;28;20294;-62
2023/09/24 05:11:27;;;;;;;1.55;1.45;;;;;;;;;;5099699;28;20212;-63
2023/09/24 05:13:54;;;;;;;1.50;1.40;;;;;;;;;;5100111;28;20253;-63
2023/09/24 05:16:22;;;;;;;1.52;1.20;;;;;;;;;;5099783;28;20208;-61
2023/09/24 05:18:50;;;;;;;1.65;1.52;;;;;;;;;;5100024;28;20337;-61
2023/09/24 05:21:18;;;;;;;1.38;1.27;;;;;;;;;;5099951;28;20310;-63
2023/09/24 05:23:47;;;;;;;1.65;1.55;;;;;;;;;;5099669;28;20227;-61
2023/09/24 05:26:15;;;;;;;1.50;1.40;;;;;;;;;;5099677;28;20555;-61
2023/09/24 05:28:43;;;;;;;1.70;1.60;;;;;;;;;;5099488;28;20229;-61
2023/09/24 05:31:11;;;;;;;1.60;1.50;;;;;;;;;;5099533;28;20215;-63
2023/09/24 05:33:38;;;;;;;1.73;1.63;;;;;;;;;;5099582;28;20485;-63
2023/09/24 05:36:07;;;;;;;1.70;1.60;;;;;;;;;;5099469;28;20594;-63
2023/09/24 05:38:35;;;;;;;1.80;1.70;;;;;;;;;;5099388;28;20508;-61
2023/09/24 05:41:05;;;;;;;1.48;1.38;;;;;;;;;;5099106;28;20615;-61
2023/09/24 05:43:33;;;;;;;1.60;1.50;;;;;;;;;;5098957;28;20230;-62
2023/09/24 05:46:02;;;;;;;1.80;1.70;;;;;;;;;;5098937;28;20543;-63
2023/09/24 05:48:29;;;;;;;1.50;1.40;;;;;;;;;;5098786;28;20199;-63
2023/09/24 05:50:57;;;;;;;1.88;1.77;;;;;;;;;;5098925;28;20204;-61
2023/09/24 05:53:24;;;;;;;1.88;1.67;;;;;;;;;;5098435;28;20207;-61
2023/09/24 05:55:55;;;;;;;1.60;1.50;;;;;;;;;;5097415;28;20203;-63
2023/09/24 05:58:24;;;;;;;1.65;1.55;;;;;;;;;;5098896;28;20222;-61
2023/09/24 06:00:52;;;;;;;2.05;1.85;;;;;;;;;;5098756;28;20204;-61
2023/09/24 06:03:19;;;;;;;1.48;1.38;;;;;;;;;;5098523;28;20203;-62
2023/09/24 06:05:47;;;;;;;1.67;1.58;;;;;;;;;;5098537;28;20243;-61
2023/09/24 06:08:15;;;;;;;1.80;1.70;;;;;;;;;;5098600;28;20409;-61
2023/09/24 06:10:45;;;;;;;1.85;1.75;;;;;;;;;;5098237;28;20210;-61
2023/09/24 06:13:14;;;;;;;1.95;1.85;;;;;;;;;;5098657;28;20203;-61
2023/09/24 06:15:43;;;;;;;1.70;1.60;;;;;;;;;;5098475;28;20264;-61
2023/09/24 06:18:11;;;;;;;2.95;1.60;;;;;;;;;;5090267;28;20280;-63
2023/09/24 06:20:39;;;;;;;1.75;1.65;;;;;;;;;;5098242;28;20204;-63
2023/09/24 06:23:08;;;;;;;1.67;1.58;;;;;;;;;;5098013;28;20200;-63
2023/09/24 06:25:36;;;;;;;2.08;1.88;;;;;;;;;;5097751;28;20208;-61
2023/09/24 06:28:09;;;;;;;1.67;1.58;;;;;;;;;;5098112;28;20207;-61
2023/09/24 06:30:38;;;;;;;1.77;1.60;;;;;;;;;;5098269;28;20212;-61
2023/09/24 06:33:07;;;;;;;1.85;1.60;;;;;;;;;;5098310;28;20216;-61
2023/09/24 06:35:37;;;;;;;1.95;1.80;;;;;;;;;;5098247;28;20230;-61
2023/09/24 06:38:05;;;;;;;1.80;1.70;;;;;;;;;;5097850;28;20299;-61
2023/09/24 06:40:33;;;;;;;2.00;1.80;;;;;;;;;;5097881;28;20200;-64
2023/09/24 06:43:01;;;;;;;1.73;1.60;;;;;;;;;;5097975;28;20208;-61
2023/09/24 06:45:28;;;;;;;1.90;1.80;;;;;;;;;;5097440;28;20632;-63
2023/09/24 06:47:56;;;;;;;2.28;1.85;;;;;;;;;;5097575;28;20212;-62
2023/09/24 06:50:26;;;;;;;1.70;1.60;;;;;;;;;;5097929;28;20485;-61
2023/09/24 06:52:53;;;;;;;1.90;1.80;;;;;;;;;;5097805;28;20203;-61
2023/09/24 06:55:21;;;;;;;1.75;1.65;;;;;;;;;;5097134;28;20200;-61
2023/09/24 06:57:48;;;;;;;1.90;1.70;;;;;;;;;;5097708;28;20234;-61
2023/09/24 07:00:16;;;;;;;2.22;1.80;;;;;;;;;;5096802;28;20536;-62
2023/09/24 07:02:44;;;;;;;2.95;1.88;;;;;;;;;;5097252;28;20204;-61
2023/09/24 07:05:11;;;;;;;1.70;1.60;;;;;;;;;;5096697;28;20296;-61
2023/09/24 07:07:40;;;;;;;1.70;1.60;;;;;;;;;;5096491;28;20611;-61
2023/09/24 07:10:08;;;;;;;1.83;1.65;;;;;;;;;;5097261;28;20211;-61
2023/09/24 07:12:36;;;;;;;2.08;1.63;;;;;;;;;;5097391;28;20208;-61
2023/09/24 07:15:04;;;;;;;2.20;1.63;;;;;;;;;;5096960;28;20227;-61
2023/09/24 07:17:31;;;;;;;1.50;1.40;;;;;;;;;;5097393;28;20480;-61
2023/09/24 07:19:59;;;;;;;1.85;1.75;;;;;;;;;;5096906;28;20269;-61
2023/09/24 07:22:27;;;;;;;1.70;1.60;;;;;;;;;;5096710;28;20208;-61
2023/09/24 07:24:56;;;;;;;1.83;1.73;;;;;;;;;;5096645;28;20227;-61
2023/09/24 07:27:24;;;;;;;1.88;1.63;;;;;;;;;;5097070;28;20484;-61
2023/09/24 07:29:51;;;;;;;1.90;1.80;;;;;;;;;;5097188;28;20558;-63
2023/09/24 07:32:19;;;;;;;2.13;1.80;;;;;;;;;;5097516;28;20622;-61
2023/09/24 07:34:47;;;;;;;2.60;2.20;;;;;;;;;;5097179;28;20219;-61
2023/09/24 07:37:15;;;;;;;2.22;1.80;;;;;;;;;;5097587;28;20551;-61
2023/09/24 07:39:43;;;;;;;1.95;1.83;;;;;;;;;;5096182;28;20214;-61
2023/09/24 07:42:12;;;;;;;1.80;1.70;;;;;;;;;;5096248;28;20211;-61
2023/09/24 07:44:40;;;;;;;2.30;2.10;;;;;;;;;;5097126;28;20314;-61
2023/09/24 07:47:08;;;;;;;2.58;1.77;;;;;;;;;;5096405;28;20203;-61
2023/09/24 07:49:35;;;;;;;2.30;2.10;;;;;;;;;;5096376;28;20696;-61
2023/09/24 07:52:03;;;;;;;2.47;2.25;;;;;;;;;;5096945;28;20204;-61
2023/09/24 07:54:30;;;;;;;2.67;2.10;;;;;;;;;;5096552;28;20208;-61
2023/09/24 07:56:58;;;;;;;2.95;2.30;;;;;;;;;;5096229;28;20466;-61
2023/09/24 07:59:27;;;;;;;2.28;1.80;;;;;;;;;;5096241;28;20211;-64
2023/09/24 08:01:54;;;;;;;2.35;2.15;;;;;;;;;;5096759;28;20204;-62
2023/09/24 08:04:23;;;;;;;2.65;2.45;;;;;;;;;;5096246;28;20246;-62
2023/09/24 08:06:50;;;;;;;3.05;2.30;;;;;;;;;;5096053;28;20211;-62
2023/09/24 08:09:18;;;;;;;6.07;2.28;;;;;;;;;;5096571;28;20204;-62
2023/09/24 08:11:45;;;;;;;2.50;1.90;;;;;;;;;;5096585;28;20481;-62
2023/09/24 08:14:13;;;;;;;2.38;2.17;;;;;;;;;;5096681;28;20210;-62
2023/09/24 08:16:42;;;;;;;1.95;1.75;;;;;;;;;;5097353;28;20203;-62
2023/09/24 08:19:10;;;;;;;2.25;1.80;;;;;;;;;;5098395;28;20577;-62
2023/09/24 08:21:38;;;;;;;1.85;1.70;;;;;;;;;;5099588;28;20641;-62
2023/09/24 08:24:05;;;;;;;2.38;1.90;;;;;;;;;;5099702;28;20318;-62
2023/09/24 08:26:33;;;;;;;3.03;2.00;;;;;;;;;;5100315;28;20203;-62
2023/09/24 08:29:05;;;;;;;2.15;1.95;;;;;;;;;;5100003;28;20230;-62
2023/09/24 08:31:33;;;;;;;1.98;1.80;;;;;;;;;;5100274;28;20204;-62
2023/09/24 08:34:02;;;;;;;1.77;1.60;;;;;;;;;;5100131;28;20211;-62
2023/09/24 08:36:30;;;;;;;3.05;1.98;;;;;;;;;;5099897;28;20600;-62
2023/09/24 08:38:58;;;;;;;2.33;1.92;;;;;;;;;;5099778;28;20651;-62
2023/09/24 08:41:26;;;;;;;2.00;1.90;;;;;;;;;;5099848;28;20203;-62
2023/09/24 08:43:56;;;;;;;2.65;1.95;;;;;;;;;;5099240;28;20764;-62
2023/09/24 08:46:25;;;;;;;2.22;1.90;;;;;;;;;;5099443;28;20218;-62
2023/09/24 08:48:53;;;;;;;2.08;1.88;;;;;;;;;;5099312;28;20282;-62
2023/09/24 08:51:22;;;;;;;2.00;1.85;;;;;;;;;;5099125;28;20211;-62
2023/09/24 08:53:50;;;;;;;1.70;1.60;;;;;;;;;;5099900;28;20232;-62
2023/09/24 08:56:23;;;;;;;2.17;1.80;;;;;;;;;;5098532;28;20207;-62
2023/09/24 08:58:50;;;;;;;1.90;1.80;;;;;;;;;;5099646;28;20252;-62
2023/09/24 09:01:20;;;;;;;1.92;1.80;;;;;;;;;;5114480;28;20199;-62
2023/09/24 09:03:48;;;;;;;1.95;1.60;;;;;;;;;;5119583;28;20532;-62
2023/09/24 09:06:30;;;;;;;2.33;2.08;;;;;;;;;;5119724;28;20237;-62
2023/09/24 09:09:00;;;;;;;2.83;1.85;;;;;;;;;;5119350;28;20210;-62
2023/09/24 09:11:38;;;;;;;2.08;1.88;;;;;;;;;;5119640;28;20221;-62
2023/09/24 09:14:06;;;;;;;2.47;1.92;;;;;;;;;;5119294;28;20234;-61
2023/09/24 09:16:34;;;;;;;1.70;1.60;;;;;;;;;;5119658;28;20263;-61
2023/09/24 09:19:02;;;;;;;3.47;1.85;;;;;;;;;;5119433;28;20252;-61
2023/09/24 09:21:30;;;;;;;1.83;1.70;;;;;;;;;;5119596;28;20203;-61
2023/09/24 09:23:57;;;;;;;1.90;1.70;;;;;;;;;;5119606;28;20285;-61
2023/09/24 09:26:30;;;;;;;2.05;1.80;;;;;;;;;;5119624;28;20246;-61
2023/09/24 09:28:57;;;;;;;1.90;1.55;;;;;;;;;;5119245;28;20199;-61
2023/09/24 09:31:25;;;;;;;2.17;1.80;;;;;;;;;;5118374;28;20211;-61
2023/09/24 09:33:52;;;;;;;1.92;1.67;;;;;;;;;;5119190;28;20203;-61
2023/09/24 09:36:24;;;;;;;2.00;1.80;;;;;;;;;;5118289;28;20584;-61
2023/09/24 09:38:52;;;;;;;2.90;1.90;;;;;;;;;;5117996;28;20649;-62
2023/09/24 09:41:20;;;;;;;3.55;1.85;;;;;;;;;;5118596;28;20253;-62
2023/09/24 09:43:49;;;;;;;2.60;1.80;;;;;;;;;;5110205;28;20501;-63
2023/09/24 09:46:18;;;;;;;2.92;2.35;;;;;;;;;;5118177;28;20223;-61
2023/09/24 09:48:50;;;;;;;2.60;2.40;;;;;;;;;;5118345;28;20632;-61
2023/09/24 09:51:18;;;;;;;2.42;2.10;;;;;;;;;;5117742;28;20209;-61
2023/09/24 09:53:47;;;;;;;2.28;1.90;;;;;;;;;;5118147;28;20268;-61
2023/09/24 09:56:15;;;;;;;2.85;2.10;;;;;;;;;;5117511;28;20447;-62
2023/09/24 09:58:46;;;;;;;2.30;2.10;;;;;;;;;;5117871;28;20222;-62
2023/09/24 10:01:18;;;;;;;2.70;2.33;;;;;;;;;;5118651;28;20267;-61
2023/09/24 10:03:47;;;;;;;2.53;2.17;;;;;;;;;;5118023;28;20305;-62
2023/09/24 10:06:15;;;;;;;3.30;2.72;;;;;;;;;;5117770;28;20239;-61
2023/09/24 10:08:44;;;;;;;2.50;2.30;;;;;;;;;;5117508;28;20199;-63
2023/09/24 10:11:12;;;;;;;2.60;2.40;;;;;;;;;;5117865;28;20264;-61
2023/09/24 10:13:46;;;;;;;2.30;2.10;;;;;;;;;;5117526;28;20306;-61
2023/09/24 10:16:29;;;;;;;2.85;2.15;;;;;;;;;;5118556;28;20679;-61
2023/09/24 10:18:59;;;;;;;2.30;2.10;;;;;;;;;;5114479;28;20268;-61
2023/09/24 10:21:30;;;;;;;2.40;2.20;;;;;;;;;;5117204;28;20207;-61
2023/09/24 10:23:58;;;;;;;2.40;2.00;;;;;;;;;;5117582;28;20286;-62
2023/09/24 10:26:49;;;;;;;2.67;2.42;;;;;;;;;;5118135;28;20231;-62
2023/09/24 10:29:18;;;;;;;2.92;2.20;;;;;;;;;;5091726;28;20203;-61
2023/09/24 10:32:06;;;;;;;2.22;2.08;;;;;;;;;;5117543;28;20699;-61
2023/09/24 10:34:48;;;;;;;2.40;2.20;;;;;;;;;;5117071;28;20583;-61
2023/09/24 10:37:17;;;;;;;2.03;1.83;;;;;;;;;;5117258;28;20203;-63
2023/09/24 10:40:00;;;;;;;2.65;2.15;;;;;;;;;;5117002;28;20649;-63
2023/09/24 10:42:28;;;;;;;2.20;2.10;;;;;;;;;;5116185;28;20264;-63
2023/09/24 10:45:25;;;;;;;2.17;2.00;;;;;;;;;;5116946;28;20231;-63
2023/09/24 10:47:53;;;;;;;2.38;2.17;;;;;;;;;;5117614;28;20210;-63
2023/09/24 10:50:21;;;;;;;2.55;2.03;;;;;;;;;;5117177;28;20206;-61
2023/09/24 10:52:51;;;;;;;1.98;1.75;;;;;;;;;;5118002;28;20202;-61
2023/09/24 10:55:18;;;;;;;2.45;1.77;;;;;;;;;;5117134;28;20653;-61
2023/09/24 10:57:46;;;;;;;2.45;1.98;;;;;;;;;;5117076;28;20657;-63
2023/09/24 11:00:17;;;;;;;2.40;1.98;;;;;;;;;;5116972;28;20211;-63
2023/09/24 11:02:45;;;;;;;3.83;1.80;;;;;;;;;;5117004;28;20260;-63
2023/09/24 11:05:13;;;;;;;1.95;1.85;;;;;;;;;;5115851;28;20638;-63
2023/09/24 11:07:40;;;;;;;3.25;2.10;;;;;;;;;;5116905;28;20203;-63
2023/09/24 11:10:10;;;;;;;2.13;1.95;;;;;;;;;;5114051;28;20220;-63
2023/09/24 11:12:38;;;;;;;2.75;1.77;;;;;;;;;;5120364;28;20202;-62
2023/09/24 11:15:06;;;;;;;2.17;1.67;;;;;;;;;;5137099;28;20209;-63
2023/09/24 11:17:33;;;;;;;5.20;1.80;;;;;;;;;;5137487;28;20202;-62
2023/09/24 11:20:01;;;;;;;2.45;2.28;;;;;;;;;;5137230;28;20213;-62
2023/09/24 11:22:30;;;;;;;2.28;1.70;;;;;;;;;;5136317;28;20209;-62
2023/09/24 11:25:07;;;;;;;2.53;1.83;;;;;;;;;;5136885;28;20202;-62
2023/09/24 11:27:36;;;;;;;2.83;1.77;;;;;;;;;;5137187;28;20213;-62
2023/09/24 11:30:04;;;;;;;2.45;1.90;;;;;;;;;;5137466;28;20202;-63
2023/09/24 11:32:31;;;;;;;2.47;2.00;;;;;;;;;;5137056;28;20202;-63
2023/09/24 11:35:09;;;;;;;2.65;1.88;;;;;;;;;;5137316;28;20217;-63
2023/09/24 11:37:53;;;;;;;2.20;2.00;;;;;;;;;;5137128;28;20202;-63
2023/09/24 11:40:24;;;;;;;2.80;1.80;;;;;;;;;;5137062;28;20500;-63
2023/09/24 11:42:54;;;;;;;3.60;1.83;;;;;;;;;;5135814;28;20541;-63
2023/09/24 11:45:38;;;;;;;2.08;1.67;;;;;;;;;;5136083;28;20218;-63
2023/09/24 11:48:07;;;;;;;1.95;1.80;;;;;;;;;;5136378;28;20328;-63
2023/09/24 11:50:34;;;;;;;2.75;1.85;;;;;;;;;;5136357;28;20202;-63
2023/09/24 11:53:02;;;;;;;2.00;1.80;;;;;;;;;;5136543;27;20216;-63
2023/09/24 11:55:30;;;;;;;2.05;1.80;;;;;;;;;;5140061;27;20483;-61
2023/09/24 11:57:59;;;;;;;2.40;1.60;;;;;;;;;;5141081;27;20210;-63
2023/09/24 12:00:27;;;;;;;2.08;1.70;;;;;;;;;;5141329;27;20217;-61
2023/09/24 12:02:54;;;;;;;3.13;1.85;;;;;;;;;;5141374;27;20203;-64
2023/09/24 12:05:22;;;;;;;1.73;1.63;;;;;;;;;;5140145;27;20257;-63
2023/09/24 12:07:50;;;;;;;1.75;1.65;;;;;;;;;;5139979;27;20194;-63
2023/09/24 12:10:21;;;;;;;1.60;1.50;;;;;;;;;;5140281;27;20194;-63
2023/09/24 12:12:49;;;;;;;1.95;1.85;;;;;;;;;;5140724;27;20210;-63
2023/09/24 12:15:19;;;;;;;1.65;1.55;;;;;;;;;;5140662;27;20501;-61
2023/09/24 12:17:47;;;;;;;1.75;1.65;;;;;;;;;;5140526;27;20206;-63
2023/09/24 12:20:14;;;;;;;2.28;1.88;;;;;;;;;;5139862;27;20625;-61
2023/09/24 12:22:43;;;;;;;1.55;1.45;;;;;;;;;;5134691;27;20202;-62
2023/09/24 12:25:11;;;;;;;1.52;1.40;;;;;;;;;;5117446;27;20279;-63
2023/09/24 12:27:38;;;;;;;2.15;1.70;;;;;;;;;;5110296;28;20218;-61
2023/09/24 12:30:08;;;;;;;1.50;1.40;;;;;;;;;;5119319;28;20214;-61
2023/09/24 12:32:37;;;;;;;1.73;1.63;;;;;;;;;;5118869;28;20203;-63
2023/09/24 12:35:04;;;;;;;1.88;1.50;;;;;;;;;;5119031;28;20195;-61
2023/09/24 12:37:34;;;;;;;1.60;1.50;;;;;;;;;;5118407;28;20261;-63
2023/09/24 12:40:05;;;;;;;1.88;1.77;;;;;;;;;;5118936;28;20210;-61
2023/09/24 12:42:32;;;;;;;1.60;1.50;;;;;;;;;;5119889;28;20207;-63
2023/09/24 12:45:00;;;;;;;1.80;1.50;;;;;;;;;;5119255;28;20264;-61
2023/09/24 12:47:28;;;;;;;1.65;1.55;;;;;;;;;;5118839;28;20231;-61
2023/09/24 12:49:57;;;;;;;1.70;1.60;;;;;;;;;;5118297;28;20229;-62
2023/09/24 12:52:25;;;;;;;2.38;1.80;;;;;;;;;;5118362;28;20234;-63
2023/09/24 12:54:53;;;;;;;1.60;1.50;;;;;;;;;;5119400;28;20203;-62
2023/09/24 12:57:20;;;;;;;2.90;1.60;;;;;;;;;;5119333;28;20516;-62
2023/09/24 12:59:48;;;;;;;2.17;1.50;;;;;;;;;;5119655;28;20199;-61
2023/09/24 13:02:17;;;;;;;3.28;1.55;;;;;;;;;;5118150;28;20210;-61
2023/09/24 13:04:45;;;;;;;2.47;1.50;;;;;;;;;;5117870;28;20272;-61
2023/09/24 13:07:15;;;;;;;1.40;1.30;;;;;;;;;;5118027;27;20242;-61
2023/09/24 13:09:43;;;;;;;1.63;1.38;;;;;;;;;;5139317;27;20711;-61
2023/09/24 13:12:11;;;;;;;1.63;1.50;;;;;;;;;;5139333;27;20195;-61
2023/09/24 13:14:39;;;;;;;1.77;1.40;;;;;;;;;;5139640;27;20263;-61
2023/09/24 13:17:06;;;;;;;1.55;1.45;;;;;;;;;;5138373;27;20198;-62
2023/09/24 13:19:34;;;;;;;2.00;1.40;;;;;;;;;;5138423;27;20209;-62
2023/09/24 13:22:01;;;;;;;2.10;1.52;;;;;;;;;;5139003;27;20206;-62
2023/09/24 13:24:30;;;;;;;1.50;1.40;;;;;;;;;;5137878;27;20202;-62
2023/09/24 13:26:58;;;;;;;2.17;1.50;;;;;;;;;;5139153;27;20718;-62
2023/09/24 13:29:27;;;;;;;1.45;1.35;;;;;;;;;;5138411;27;20198;-62
2023/09/24 13:31:55;;;;;;;1.75;1.38;;;;;;;;;;5139366;27;20194;-62
2023/09/24 13:34:23;;;;;;;1.98;1.58;;;;;;;;;;5138572;27;20724;-62
2023/09/24 13:36:50;;;;;;;1.70;1.40;;;;;;;;;;5138474;27;20199;-62
2023/09/24 13:39:18;;;;;;;1.60;1.50;;;;;;;;;;5138552;27;20203;-62
2023/09/24 13:41:47;;;;;;;1.48;1.38;;;;;;;;;;5138690;27;20205;-62
2023/09/24 13:44:14;;;;;;;1.40;1.30;;;;;;;;;;5138056;27;20202;-62
2023/09/24 13:46:42;;;;;;;1.65;1.40;;;;;;;;;;5138659;27;20230;-62
2023/09/24 13:49:10;;;;;;;1.75;1.33;;;;;;;;;;5138145;27;20228;-62
2023/09/24 13:51:41;;;;;;;2.10;1.50;;;;;;;;;;5129832;27;20267;-62
2023/09/24 13:54:09;;;;;;;1.77;1.35;;;;;;;;;;5137681;27;20202;-62
2023/09/24 13:56:37;;;;;;;1.73;1.45;;;;;;;;;;5137831;27;20244;-62
2023/09/24 13:59:06;;;;;;;1.67;1.55;;;;;;;;;;5137559;27;20202;-62
2023/09/24 14:01:34;;;;;;;1.95;1.23;;;;;;;;;;5138269;27;20203;-62
2023/09/24 14:04:02;;;;;;;1.33;1.23;;;;;;;;;;5137812;27;20202;-62
2023/09/24 14:06:29;;;;;;;1.40;1.30;;;;;;;;;;5137544;27;20234;-62
2023/09/24 14:14:29;;;;;;;1.65;1.50;;;;;;;;;;5138117;27;20259;-62
2023/09/24 14:16:56;;;;;;;1.42;1.33;;;;;;;;;;5136965;27;20206;-62
2023/09/24 14:19:24;;;;;;;2.45;1.50;;;;;;;;;;5136849;27;20262;-62
2023/09/24 14:21:51;;;;;;;1.65;1.40;;;;;;;;;;5136789;27;20249;-62
2023/09/24 14:24:19;;;;;;;1.40;1.30;;;;;;;;;;5136842;27;20213;-62
2023/09/24 14:26:46;;;;;;;1.55;1.45;;;;;;;;;;5137103;27;20244;-62
2023/09/24 14:29:14;;;;;;;1.65;1.40;;;;;;;;;;5137089;27;20228;-62
2023/09/24 14:31:43;;;;;;;1.33;1.23;;;;;;;;;;5137349;27;20218;-62
2023/09/24 14:34:11;;;;;;;1.75;1.20;;;;;;;;;;5136906;27;20287;-62
2023/09/24 14:36:38;;;;;;;1.85;1.40;;;;;;;;;;5137569;27;20202;-62
2023/09/24 14:39:06;;;;;;;1.40;1.30;;;;;;;;;;5137397;27;20202;-62
2023/09/24 14:41:34;;;;;;;1.63;1.52;;;;;;;;;;5136928;27;20504;-62
2023/09/24 14:44:04;;;;;;;1.00;1.00;;;;;;;;;;5137233;27;20221;-62
2023/09/24 14:46:32;;;;;;;1.50;1.40;;;;;;;;;;5137499;27;20230;-62
2023/09/24 14:49:01;;;;;;;1.40;1.30;;;;;;;;;;5136499;27;20202;-62
2023/09/24 14:51:28;;;;;;;1.55;1.20;;;;;;;;;;5136105;27;20233;-62
2023/09/24 14:53:58;;;;;;;1.15;1.10;;;;;;;;;;5135849;27;20206;-62
2023/09/24 14:56:26;;;;;;;1.20;1.10;;;;;;;;;;5137088;27;20199;-62
2023/09/24 14:58:53;;;;;;;1.33;1.20;;;;;;;;;;5136955;27;20202;-62